Time;durP1;ratioP1;P1;durP2;ratioP2;P2;SDS_P1;SDS_P2;PMS_P1;PMS_P2;Temp;Humidity;BMP_temperature;BMP_pressure;BME280_temperature;BME280_humidity;BME280_pressure;Samples;Min_cycle;Max_cycle;Signal;HPM_P1;HPM_P2
2021/11/21 00:04:03;;;;;;;14.37;13.17;;;9.80;45.10;;;;;;10410948;28;20239;-73
2021/11/21 00:09:08;;;;;;;15.90;14.50;;;9.80;45.00;;;;;;10423374;28;20734;-73
2021/11/21 00:14:11;;;;;;;15.87;14.43;;;9.70;45.10;;;;;;10422343;28;20243;-73
2021/11/21 00:19:14;;;;;;;15.23;13.83;;;9.70;45.10;;;;;;10421779;28;20596;-73
2021/11/21 00:24:21;;;;;;;16.13;14.63;;;9.70;45.10;;;;;;10422288;28;20726;-73
2021/11/21 00:29:24;;;;;;;15.60;14.17;;;9.60;45.20;;;;;;10417352;28;20259;-73
2021/11/21 00:34:27;;;;;;;16.27;14.63;;;9.50;45.10;;;;;;10422304;28;20316;-73
2021/11/21 00:39:32;;;;;;;15.27;13.77;;;9.50;45.10;;;;;;10422068;28;20232;-73
2021/11/21 00:44:35;;;;;;;16.17;14.60;;;9.50;45.20;;;;;;10415394;28;20235;-73
2021/11/21 00:49:39;;;;;;;15.70;14.30;;;9.40;45.10;;;;;;10418933;28;20226;-73
2021/11/21 00:54:52;;;;;;;16.93;15.23;;;9.30;45.10;;;;;;10422751;28;20228;-73
2021/11/21 00:59:55;;;;;;;16.03;14.40;;;9.30;45.20;;;;;;10418073;28;20256;-73
2021/11/21 01:05:01;;;;;;;16.73;15.00;;;9.20;45.00;;;;;;10416692;28;20369;-73
2021/11/21 01:10:09;;;;;;;15.87;14.23;;;9.20;45.10;;;;;;10420903;28;20589;-74
2021/11/21 01:15:19;;;;;;;16.47;14.83;;;9.10;45.10;;;;;;10416485;28;20796;-73
2021/11/21 01:20:24;;;;;;;16.57;14.87;;;9.00;45.20;;;;;;10410045;28;20237;-73
2021/11/21 01:25:29;;;;;;;15.77;14.17;;;9.00;45.30;;;;;;10410148;28;20229;-73
2021/11/21 01:30:32;;;;;;;16.43;14.73;;;8.90;45.50;;;;;;10417954;28;20652;-73
2021/11/21 01:35:36;;;;;;;16.03;14.43;;;8.90;45.30;;;;;;10420637;28;20252;-73
2021/11/21 01:40:40;;;;;;;16.13;14.57;;;8.90;45.30;;;;;;10418013;28;20225;-73
2021/11/21 01:45:44;;;;;;;15.53;13.97;;;8.90;45.30;;;;;;10420963;28;20420;-73
2021/11/21 01:50:48;;;;;;;16.30;14.70;;;8.80;45.20;;;;;;10421991;28;20224;-74
2021/11/21 01:55:52;;;;;;;15.73;14.23;;;8.80;45.20;;;;;;10430308;28;20239;-71
2021/11/21 02:00:57;;;;;;;14.37;12.97;;;8.70;45.20;;;;;;10421735;28;20248;-71
2021/11/21 02:06:01;;;;;;;15.10;13.60;;;8.70;45.30;;;;;;10420499;28;20229;-71
2021/11/21 02:11:06;;;;;;;15.80;14.20;;;8.70;45.10;;;;;;10421916;28;20239;-73
2021/11/21 02:16:10;;;;;;;13.33;11.93;;;8.60;45.00;;;;;;10426641;28;20606;-73
2021/11/21 02:21:16;;;;;;;13.20;11.83;;;8.50;45.10;;;;;;10426322;28;20237;-73
2021/11/21 02:26:20;;;;;;;13.37;12.07;;;8.40;45.20;;;;;;10423390;28;20226;-73
2021/11/21 02:31:24;;;;;;;12.63;11.40;;;8.40;45.10;;;;;;10427562;28;20711;-72
2021/11/21 02:36:29;;;;;;;11.83;10.63;;;8.40;45.10;;;;;;10425661;28;20284;-72
2021/11/21 02:41:32;;;;;;;12.00;10.87;;;8.40;45.20;;;;;;10418357;28;20233;-72
2021/11/21 02:46:36;;;;;;;11.73;10.63;;;8.40;45.00;;;;;;10425271;28;20235;-72
2021/11/21 02:51:41;;;;;;;12.00;10.80;;;8.40;44.60;;;;;;10424928;28;20251;-72
2021/11/21 02:56:44;;;;;;;11.23;10.23;;;8.30;44.70;;;;;;10422350;28;20753;-72
2021/11/21 03:01:47;;;;;;;9.17;8.37;;;8.20;44.70;;;;;;10428050;28;20225;-72
2021/11/21 03:06:52;;;;;;;8.63;7.93;;;8.20;44.60;;;;;;10420626;28;20228;-72
2021/11/21 03:11:56;;;;;;;8.50;7.70;;;8.00;44.40;;;;;;10422911;28;20626;-72
2021/11/21 03:17:00;;;;;;;8.87;8.07;;;7.90;44.50;;;;;;10422624;28;20321;-72
2021/11/21 03:22:05;;;;;;;8.63;7.90;;;7.70;44.80;;;;;;10422566;28;20242;-72
2021/11/21 03:27:09;;;;;;;9.87;8.97;;;7.60;44.80;;;;;;10417371;28;20240;-72
2021/11/21 03:32:12;;;;;;;8.27;7.57;;;7.60;44.80;;;;;;10423671;28;20260;-72
2021/11/21 03:37:16;;;;;;;8.90;8.10;;;7.50;44.80;;;;;;10419285;28;20237;-73
2021/11/21 03:42:20;;;;;;;8.10;7.40;;;7.40;44.70;;;;;;10418105;28;20225;-73
2021/11/21 03:47:23;;;;;;;8.40;7.70;;;7.40;44.90;;;;;;10423887;28;20248;-72
2021/11/21 03:52:28;;;;;;;8.67;7.87;;;7.40;44.80;;;;;;10421949;28;20600;-72
2021/11/21 03:57:31;;;;;;;8.63;7.93;;;7.40;44.80;;;;;;10419712;28;20597;-72
2021/11/21 04:02:34;;;;;;;9.03;8.23;;;7.40;44.80;;;;;;10420095;28;20415;-72
2021/11/21 04:07:39;;;;;;;9.57;8.67;;;7.40;44.80;;;;;;10417988;28;20257;-72
2021/11/21 04:12:44;;;;;;;9.00;8.20;;;7.40;45.00;;;;;;10427120;28;20249;-72
2021/11/21 04:17:48;;;;;;;9.33;8.43;;;7.40;45.00;;;;;;10421283;28;20548;-72
2021/11/21 04:22:52;;;;;;;9.70;8.83;;;7.40;44.80;;;;;;10420708;28;20233;-72
2021/11/21 04:27:55;;;;;;;9.80;8.97;;;7.40;45.00;;;;;;10418510;28;20229;-72
2021/11/21 04:32:58;;;;;;;10.07;9.17;;;7.40;44.90;;;;;;10418273;28;20755;-72
2021/11/21 04:38:03;;;;;;;10.53;9.53;;;7.40;44.70;;;;;;10419252;28;20225;-72
2021/11/21 04:43:06;;;;;;;11.13;10.13;;;7.30;44.80;;;;;;10420794;28;20271;-71
2021/11/21 04:48:09;;;;;;;10.43;9.50;;;7.40;44.90;;;;;;10417427;28;20590;-71
2021/11/21 04:53:14;;;;;;;11.10;10.07;;;7.40;44.80;;;;;;10423911;28;20240;-71
2021/11/21 04:58:17;;;;;;;11.83;10.73;;;7.40;44.90;;;;;;10417030;28;20233;-71
2021/11/21 05:03:20;;;;;;;13.67;12.37;;;7.40;45.00;;;;;;10415829;28;20233;-71
2021/11/21 05:08:25;;;;;;;13.63;12.33;;;7.30;44.90;;;;;;10417499;28;20229;-71
2021/11/21 05:13:28;;;;;;;14.73;13.23;;;7.30;45.20;;;;;;10418343;28;20661;-71
2021/11/21 05:18:31;;;;;;;13.37;12.07;;;7.30;45.20;;;;;;10419934;28;20585;-71
2021/11/21 05:23:36;;;;;;;14.10;12.70;;;7.30;45.10;;;;;;10418760;28;20241;-71
2021/11/21 05:28:39;;;;;;;15.13;13.63;;;7.30;45.30;;;;;;10413980;28;20238;-71
2021/11/21 05:33:42;;;;;;;13.53;12.23;;;7.30;45.10;;;;;;10415828;28;20229;-72
2021/11/21 05:38:47;;;;;;;14.30;12.90;;;7.40;45.10;;;;;;10416043;28;20232;-72
2021/11/21 05:43:50;;;;;;;12.93;11.70;;;7.40;45.00;;;;;;10415388;28;20235;-72
2021/11/21 05:48:53;;;;;;;14.37;12.93;;;7.50;45.00;;;;;;10418294;28;20237;-72
2021/11/21 05:53:58;;;;;;;13.20;11.90;;;7.50;45.00;;;;;;10415044;28;20252;-72
2021/11/21 05:59:01;;;;;;;14.17;12.87;;;7.50;45.00;;;;;;10414941;28;20225;-72
2021/11/21 06:04:06;;;;;;;13.00;11.70;;;7.40;44.80;;;;;;10413186;28;20232;-72
2021/11/21 06:09:10;;;;;;;12.37;11.23;;;7.40;44.80;;;;;;10419590;28;20234;-72
2021/11/21 06:14:13;;;;;;;13.10;11.83;;;7.40;44.80;;;;;;10413263;28;20715;-72
2021/11/21 06:19:16;;;;;;;13.10;11.80;;;7.40;44.80;;;;;;10419688;28;20221;-72
2021/11/21 06:24:21;;;;;;;13.63;12.43;;;7.40;44.70;;;;;;10416261;28;20283;-72
2021/11/21 06:29:24;;;;;;;14.10;12.73;;;7.30;44.80;;;;;;10417672;28;20724;-72
2021/11/21 06:34:27;;;;;;;13.63;12.33;;;7.30;44.80;;;;;;10411648;28;20229;-72
2021/11/21 06:39:33;;;;;;;12.73;11.47;;;7.30;45.10;;;;;;10417656;28;20235;-72
2021/11/21 06:44:36;;;;;;;13.93;12.53;;;7.30;45.30;;;;;;10417579;28;20233;-73
2021/11/21 06:49:39;;;;;;;13.87;12.57;;;7.30;45.20;;;;;;10420404;28;20233;-73
2021/11/21 06:54:44;;;;;;;12.20;11.10;;;7.30;44.80;;;;;;10421110;28;20747;-73
2021/11/21 06:59:47;;;;;;;15.03;13.43;;;7.30;44.60;;;;;;10423738;28;20610;-72
2021/11/21 07:04:50;;;;;;;12.70;11.50;;;7.30;44.60;;;;;;10423012;28;20716;-71
2021/11/21 07:09:56;;;;;;;12.67;11.47;;;7.20;44.40;;;;;;10420286;28;20260;-71
2021/11/21 07:14:59;;;;;;;12.53;11.33;;;7.10;44.40;;;;;;10418325;28;20233;-71
2021/11/21 07:20:02;;;;;;;12.80;11.60;;;7.00;44.60;;;;;;10423446;28;20226;-71
2021/11/21 07:25:08;;;;;;;11.93;10.73;;;7.00;44.90;;;;;;10416898;28;20229;-71
2021/11/21 07:30:12;;;;;;;12.53;11.33;;;7.00;45.00;;;;;;10422297;28;20233;-71
2021/11/21 07:35:18;;;;;;;12.90;11.70;;;7.00;45.00;;;;;;10426202;28;20248;-71
2021/11/21 07:40:22;;;;;;;12.50;11.37;;;7.00;44.90;;;;;;10430800;28;20257;-71
2021/11/21 07:45:29;;;;;;;14.77;13.30;;;7.00;45.10;;;;;;10415444;28;20591;-70
2021/11/21 07:50:32;;;;;;;14.50;13.07;;;7.00;44.90;;;;;;10422829;28;20244;-70
2021/11/21 07:55:37;;;;;;;15.30;13.73;;;7.00;45.00;;;;;;10424013;28;20228;-70
2021/11/21 08:00:40;;;;;;;14.17;12.77;;;7.00;45.10;;;;;;10417072;28;20225;-70
2021/11/21 08:05:44;;;;;;;13.80;12.40;;;7.00;45.00;;;;;;10424423;28;20276;-70
2021/11/21 08:10:48;;;;;;;14.33;12.87;;;7.00;45.00;;;;;;10424792;28;20228;-70
2021/11/21 08:15:52;;;;;;;14.90;13.30;;;7.00;45.10;;;;;;10427529;28;20248;-70
2021/11/21 08:20:55;;;;;;;14.30;12.80;;;6.90;45.20;;;;;;10424788;28;20743;-71
2021/11/21 08:26:00;;;;;;;14.57;12.70;;;6.90;45.20;;;;;;10418924;28;20612;-71
2021/11/21 08:31:03;;;;;;;15.20;13.53;;;6.80;45.50;;;;;;10420181;28;20241;-71
2021/11/21 08:36:06;;;;;;;17.07;15.27;;;6.70;45.50;;;;;;10421004;28;20245;-71
2021/11/21 08:41:11;;;;;;;16.77;14.97;;;6.70;45.80;;;;;;10423054;28;20233;-71
2021/11/21 08:46:14;;;;;;;16.37;14.60;;;6.80;45.80;;;;;;10418511;28;20241;-71
2021/11/21 08:51:18;;;;;;;16.17;13.87;;;6.90;45.60;;;;;;10428816;28;20233;-71
2021/11/21 08:56:23;;;;;;;26.57;23.17;;;6.90;45.70;;;;;;10428916;28;20240;-71
2021/11/21 09:01:27;;;;;;;18.00;16.03;;;6.90;45.90;;;;;;10417484;28;20427;-71
2021/11/21 09:06:31;;;;;;;18.63;16.33;;;7.00;45.80;;;;;;10424631;28;20674;-71
2021/11/21 09:11:36;;;;;;;25.37;17.83;;;7.10;45.80;;;;;;10414064;28;20710;-71
2021/11/21 09:16:40;;;;;;;14.73;13.13;;;7.10;45.80;;;;;;10417584;28;20291;-70
2021/11/21 09:21:44;;;;;;;15.03;13.43;;;7.10;45.60;;;;;;10422997;28;20232;-71
2021/11/21 09:26:49;;;;;;;14.07;12.57;;;7.20;45.70;;;;;;10420021;28;20278;-71
2021/11/21 09:31:54;;;;;;;14.70;12.53;;;7.20;45.70;;;;;;10417534;28;20259;-70
2021/11/21 09:36:57;;;;;;;13.97;12.47;;;7.30;45.70;;;;;;10420718;28;20233;-71
2021/11/21 09:42:03;;;;;;;13.77;12.27;;;7.20;45.40;;;;;;10419040;28;20225;-70
2021/11/21 09:47:08;;;;;;;13.70;11.97;;;7.20;45.70;;;;;;10421032;28;20221;-71
2021/11/21 09:52:15;;;;;;;14.17;12.67;;;7.20;45.70;;;;;;10421260;28;20229;-71
2021/11/21 09:57:22;;;;;;;12.73;11.43;;;7.20;46.00;;;;;;10425316;28;20236;-71
2021/11/21 10:02:31;;;;;;;15.67;12.63;;;7.30;46.10;;;;;;10418453;28;20225;-71
2021/11/21 10:07:36;;;;;;;18.57;14.23;;;7.40;46.00;;;;;;10426396;28;20243;-71
2021/11/21 10:12:42;;;;;;;15.37;13.20;;;7.40;45.80;;;;;;10423864;28;20237;-71
2021/11/21 10:17:50;;;;;;;17.63;14.77;;;7.40;46.10;;;;;;10426379;28;20228;-71
2021/11/21 10:22:59;;;;;;;23.53;16.53;;;7.50;46.10;;;;;;10433768;28;20237;-71
2021/11/21 10:28:05;;;;;;;20.50;16.37;;;7.50;46.10;;;;;;10421192;28;20225;-71
2021/11/21 10:33:08;;;;;;;17.47;15.00;;;7.50;46.00;;;;;;10427896;28;20291;-71
2021/11/21 10:38:11;;;;;;;14.70;13.00;;;7.50;45.90;;;;;;10431674;28;20222;-71
2021/11/21 10:43:19;;;;;;;16.07;14.37;;;7.50;46.00;;;;;;10430023;28;20607;-71
2021/11/21 10:48:26;;;;;;;15.47;13.27;;;7.50;46.40;;;;;;10428576;28;20245;-72
2021/11/21 10:53:33;;;;;;;18.83;14.73;;;7.50;46.60;;;;;;10426665;28;20231;-73
2021/11/21 10:58:50;;;;;;;16.80;14.60;;;7.50;46.50;;;;;;10429387;28;20286;-71
2021/11/21 11:04:11;;;;;;;18.47;15.07;;;7.50;46.90;;;;;;10426388;28;20230;-71
2021/11/21 11:09:20;;;;;;;17.80;14.53;;;7.50;46.80;;;;;;10426016;28;20237;-71
2021/11/21 11:14:25;;;;;;;15.17;12.57;;;7.50;46.50;;;;;;10422468;28;20234;-71
2021/11/21 11:19:30;;;;;;;17.40;14.90;;;7.30;46.10;;;;;;10423477;28;20239;-71
2021/11/21 11:24:40;;;;;;;14.00;12.47;;;7.50;46.40;;;;;;10410948;28;20240;-71
2021/11/21 11:29:48;;;;;;;13.57;12.17;;;7.50;46.50;;;;;;10427564;28;20234;-71
2021/11/21 11:34:52;;;;;;;15.23;13.33;;;7.50;46.30;;;;;;10422892;28;20709;-71
2021/11/21 11:39:55;;;;;;;24.27;19.00;;;7.60;46.00;;;;;;10426667;28;20228;-72
2021/11/21 11:45:00;;;;;;;18.33;15.43;;;7.60;46.00;;;;;;10415410;28;20336;-71
2021/11/21 11:50:05;;;;;;;21.97;17.80;;;7.60;46.00;;;;;;10418048;28;20707;-71
2021/11/21 11:55:10;;;;;;;20.67;16.83;;;7.50;46.00;;;;;;10418746;28;20708;-72
2021/11/21 12:00:48;;;;;;;19.00;15.90;;;7.50;46.10;;;;;;10425164;28;20237;-71
2021/11/21 12:06:04;;;;;;;20.30;17.03;;;7.50;46.70;;;;;;10379965;28;20234;-71
2021/11/21 12:11:07;;;;;;;20.07;16.37;;;7.50;46.90;;;;;;10422384;28;20736;-71
2021/11/21 12:16:17;;;;;;;20.67;17.60;;;7.50;46.30;;;;;;10423420;28;20266;-71
2021/11/21 12:21:45;;;;;;;19.57;16.57;;;7.50;46.70;;;;;;10417662;28;20222;-71
2021/11/21 12:26:49;;;;;;;20.63;18.17;;;7.50;46.90;;;;;;10422837;28;20233;-71
2021/11/21 12:32:25;;;;;;;18.90;16.80;;;7.60;46.50;;;;;;10426409;28;20383;-71
2021/11/21 12:37:48;;;;;;;20.37;17.50;;;7.70;46.70;;;;;;10422012;28;20231;-71
2021/11/21 12:42:57;;;;;;;15.50;13.70;;;7.70;46.50;;;;;;10416587;28;20232;-71
2021/11/21 12:48:03;;;;;;;19.93;16.33;;;7.70;46.30;;;;;;10421792;28;20222;-71
2021/11/21 12:53:13;;;;;;;19.80;16.70;;;7.80;46.30;;;;;;10422415;28;20713;-71
2021/11/21 12:58:19;;;;;;;16.10;14.30;;;7.80;46.20;;;;;;10414425;28;20225;-71
2021/11/21 13:03:25;;;;;;;18.33;15.13;;;7.80;46.00;;;;;;10421346;28;20320;-71
2021/11/21 13:08:31;;;;;;;16.67;14.17;;;7.80;46.10;;;;;;10420136;28;20240;-71
2021/11/21 13:13:36;;;;;;;14.87;12.90;;;7.80;46.00;;;;;;10426108;28;20241;-71
2021/11/21 13:18:42;;;;;;;14.37;12.67;;;7.80;46.10;;;;;;10420999;28;20741;-71
2021/11/21 13:23:45;;;;;;;17.67;13.97;;;7.80;46.00;;;;;;10419273;28;20225;-71
2021/11/21 13:28:50;;;;;;;14.77;13.27;;;7.80;46.00;;;;;;10422743;28;20268;-71
2021/11/21 13:33:57;;;;;;;14.07;12.57;;;7.80;46.00;;;;;;10422364;28;20327;-71
2021/11/21 13:39:05;;;;;;;13.63;12.23;;;7.80;46.00;;;;;;10424361;28;20602;-74
2021/11/21 13:44:11;;;;;;;13.97;12.40;;;7.90;45.90;;;;;;10417208;28;20225;-73
2021/11/21 13:49:21;;;;;;;14.57;13.07;;;7.90;45.80;;;;;;10424302;28;20331;-74
2021/11/21 13:54:27;;;;;;;14.97;13.37;;;7.80;46.00;;;;;;10420729;28;20663;-73
2021/11/21 13:59:40;;;;;;;14.47;12.93;;;7.90;46.00;;;;;;10428786;28;20255;-72
2021/11/21 14:04:45;;;;;;;13.33;11.93;;;7.90;46.20;;;;;;10422285;28;20230;-71
2021/11/21 14:09:57;;;;;;;14.07;12.50;;;8.00;46.00;;;;;;10433365;28;20239;-72
2021/11/21 14:15:06;;;;;;;12.07;10.80;;;8.00;45.90;;;;;;10424136;28;20233;-72
2021/11/21 14:20:28;;;;;;;12.30;10.73;;;8.00;45.90;;;;;;10432794;28;20220;-72
2021/11/21 14:25:32;;;;;;;10.90;9.80;;;8.00;45.90;;;;;;10421368;28;20233;-72
2021/11/21 14:30:41;;;;;;;12.43;11.13;;;8.00;45.90;;;;;;10422434;28;20317;-73
2021/11/21 14:35:47;;;;;;;12.23;10.93;;;8.00;46.00;;;;;;10426102;28;20240;-73
2021/11/21 14:41:03;;;;;;;12.27;10.63;;;8.00;45.90;;;;;;10427810;28;20239;-73
2021/11/21 14:46:07;;;;;;;11.03;9.90;;;8.00;46.00;;;;;;10425336;28;20233;-73
2021/11/21 14:51:12;;;;;;;14.43;10.07;;;8.10;46.00;;;;;;10429529;28;20283;-74
2021/11/21 14:56:18;;;;;;;11.50;10.30;;;8.10;46.60;;;;;;10432034;28;20242;-75
2021/11/21 15:01:23;;;;;;;10.43;9.43;;;8.10;48.30;;;;;;10426234;28;20283;-74
2021/11/21 15:06:30;;;;;;;11.07;9.83;;;8.30;47.10;;;;;;10437855;28;20758;-74
2021/11/21 15:11:36;;;;;;;11.47;9.77;;;8.40;46.20;;;;;;10428909;28;20988;-74
2021/11/21 15:16:40;;;;;;;11.17;10.07;;;8.40;46.00;;;;;;10429714;28;20233;-74
2021/11/21 15:21:45;;;;;;;14.57;9.73;;;8.40;45.80;;;;;;10428708;28;20236;-74
2021/11/21 15:26:49;;;;;;;11.40;10.20;;;8.30;45.40;;;;;;10424254;28;20229;-74
2021/11/21 15:31:53;;;;;;;11.27;10.10;;;8.40;45.50;;;;;;10425382;28;20243;-75
2021/11/21 15:37:00;;;;;;;12.60;10.43;;;8.40;45.50;;;;;;10425425;28;20229;-71
2021/11/21 15:42:05;;;;;;;10.83;9.73;;;8.40;45.50;;;;;;10421068;28;20332;-75
2021/11/21 15:47:10;;;;;;;10.67;9.57;;;8.30;45.50;;;;;;10421394;28;21068;-73
2021/11/21 15:52:15;;;;;;;11.00;9.30;;;8.30;45.70;;;;;;10420589;28;20246;-72
2021/11/21 15:57:19;;;;;;;10.90;9.60;;;8.30;46.20;;;;;;10422232;28;20242;-72
2021/11/21 16:02:22;;;;;;;11.60;10.40;;;8.30;45.90;;;;;;10416851;28;20235;-73
2021/11/21 16:07:27;;;;;;;10.63;9.53;;;8.40;45.90;;;;;;10410461;28;20228;-72
2021/11/21 16:12:30;;;;;;;9.63;8.73;;;8.40;45.70;;;;;;10411408;28;20225;-72
2021/11/21 16:17:34;;;;;;;10.60;9.13;;;8.30;45.70;;;;;;10415491;28;20678;-73
2021/11/21 16:22:39;;;;;;;10.93;8.73;;;8.30;45.80;;;;;;10415890;28;20233;-71
2021/11/21 16:27:42;;;;;;;11.43;9.50;;;8.30;45.90;;;;;;10413530;28;20742;-76
2021/11/21 16:32:46;;;;;;;11.70;10.03;;;8.30;46.00;;;;;;10411589;28;20234;-71
2021/11/21 16:37:51;;;;;;;9.57;8.57;;;8.30;46.10;;;;;;10410914;28;20240;-75
2021/11/21 16:42:54;;;;;;;12.57;9.53;;;8.30;45.90;;;;;;10418744;28;20781;-75
2021/11/21 16:47:57;;;;;;;10.77;9.30;;;8.30;46.00;;;;;;10425897;28;20225;-75
2021/11/21 16:53:05;;;;;;;9.93;8.90;;;8.30;46.00;;;;;;10423877;28;20233;-75
2021/11/21 16:58:09;;;;;;;9.47;8.47;;;8.30;46.20;;;;;;10420976;28;20235;-75
2021/11/21 17:03:12;;;;;;;10.43;9.43;;;8.30;45.90;;;;;;10417826;28;20225;-75
2021/11/21 17:08:16;;;;;;;10.67;8.50;;;8.30;45.80;;;;;;10416257;28;20232;-75
2021/11/21 17:13:19;;;;;;;15.27;13.63;;;8.40;46.00;;;;;;10414047;28;20355;-75
2021/11/21 17:18:23;;;;;;;13.80;12.27;;;8.30;46.00;;;;;;10426250;28;20316;-75
2021/11/21 17:23:28;;;;;;;12.73;11.43;;;8.40;46.10;;;;;;10420999;28;20239;-76
2021/11/21 17:28:31;;;;;;;11.50;9.53;;;8.40;46.10;;;;;;10410725;28;20229;-76
2021/11/21 17:33:34;;;;;;;10.03;8.63;;;8.40;46.10;;;;;;10407312;28;20252;-76
2021/11/21 17:38:39;;;;;;;8.70;7.80;;;8.50;46.10;;;;;;10413653;28;20225;-76
2021/11/21 17:43:43;;;;;;;9.90;8.63;;;8.50;46.10;;;;;;10414828;28;20228;-76
2021/11/21 17:48:46;;;;;;;11.57;9.60;;;8.50;46.00;;;;;;10420330;28;20243;-75
2021/11/21 17:53:51;;;;;;;10.80;9.00;;;8.50;46.00;;;;;;10415584;28;20251;-75
2021/11/21 17:58:54;;;;;;;11.10;9.10;;;8.50;46.00;;;;;;10424125;28;20228;-75
2021/11/21 18:03:58;;;;;;;7.57;6.87;;;8.50;45.80;;;;;;10426192;28;20236;-73
2021/11/21 18:09:06;;;;;;;9.83;8.27;;;8.60;47.50;;;;;;10423946;28;20244;-74
2021/11/21 18:14:10;;;;;;;10.47;9.47;;;8.70;47.60;;;;;;10423926;28;20237;-75
2021/11/21 18:19:13;;;;;;;9.63;8.63;;;8.70;46.80;;;;;;10419133;28;20626;-75
2021/11/21 18:24:18;;;;;;;18.17;15.93;;;8.80;46.50;;;;;;10421159;28;20276;-74
2021/11/21 18:29:22;;;;;;;16.63;14.23;;;8.80;46.50;;;;;;10417737;28;20248;-74
2021/11/21 18:34:25;;;;;;;16.77;12.93;;;8.80;46.20;;;;;;10418613;28;20237;-74
2021/11/21 18:39:30;;;;;;;13.60;11.90;;;8.80;46.20;;;;;;10428997;28;20649;-74
2021/11/21 18:44:33;;;;;;;13.30;11.83;;;8.80;45.80;;;;;;10424400;28;20725;-74
2021/11/21 18:49:36;;;;;;;11.93;10.73;;;8.70;45.80;;;;;;10425558;28;20220;-74
2021/11/21 18:54:42;;;;;;;15.70;13.57;;;8.70;46.10;;;;;;10429002;28;20229;-74
2021/11/21 18:59:51;;;;;;;13.97;12.53;;;8.70;46.30;;;;;;10426257;28;20233;-74
2021/11/21 19:04:54;;;;;;;12.17;10.87;;;8.70;46.20;;;;;;10427563;28;20233;-72
2021/11/21 19:10:00;;;;;;;15.87;13.30;;;8.70;46.20;;;;;;10426850;28;20225;-72
2021/11/21 19:15:04;;;;;;;14.17;11.87;;;8.70;46.20;;;;;;10425884;28;20320;-72
2021/11/21 19:20:08;;;;;;;13.23;11.33;;;8.80;46.10;;;;;;10428680;28;20316;-73
2021/11/21 19:25:14;;;;;;;12.90;11.50;;;8.80;46.00;;;;;;10432620;28;20651;-71
2021/11/21 19:30:18;;;;;;;14.40;12.90;;;8.70;45.90;;;;;;10423040;28;20308;-71
2021/11/21 19:35:21;;;;;;;13.03;11.27;;;8.70;45.90;;;;;;10421664;28;20236;-72
2021/11/21 19:40:27;;;;;;;16.03;14.40;;;8.70;45.80;;;;;;10425594;28;20347;-71
2021/11/21 19:45:34;;;;;;;15.17;13.50;;;8.60;45.90;;;;;;10422685;28;20764;-72
2021/11/21 19:50:37;;;;;;;12.23;10.97;;;8.60;45.90;;;;;;10424240;28;20225;-72
2021/11/21 19:55:43;;;;;;;11.20;10.10;;;8.50;46.10;;;;;;10424368;28;20229;-72
2021/11/21 20:00:46;;;;;;;10.47;9.47;;;8.50;46.20;;;;;;10420189;28;20224;-72
2021/11/21 20:05:50;;;;;;;11.63;10.43;;;8.50;46.20;;;;;;10423048;28;20275;-72
2021/11/21 20:10:55;;;;;;;10.07;9.07;;;8.50;46.20;;;;;;10424589;28;20236;-72
2021/11/21 20:15:58;;;;;;;11.03;8.63;;;8.50;46.20;;;;;;10423746;28;20240;-72
2021/11/21 20:21:01;;;;;;;9.83;8.83;;;8.50;46.20;;;;;;10424214;28;20221;-72
2021/11/21 20:26:07;;;;;;;12.17;10.87;;;8.60;46.20;;;;;;10423395;28;20233;-72
2021/11/21 20:34:35;;;;;;;11.30;10.10;;;8.60;46.20;;;;;;10424274;28;20239;-72
2021/11/21 20:36:37;;;;;;;11.80;10.60;;;8.60;46.00;;;;;;10420863;28;20245;-72
2021/11/21 20:41:42;;;;;;;11.10;9.93;;;8.60;45.90;;;;;;10422932;28;20295;-72
2021/11/21 20:46:46;;;;;;;10.83;9.73;;;8.50;45.90;;;;;;10421185;28;20248;-72
2021/11/21 20:51:49;;;;;;;8.90;8.10;;;8.40;45.80;;;;;;10421401;28;20233;-72
2021/11/21 20:56:54;;;;;;;10.37;9.37;;;8.40;45.90;;;;;;10421057;28;20237;-72
2021/11/21 21:01:59;;;;;;;10.80;9.07;;;8.40;46.20;;;;;;10421476;28;20233;-72
2021/11/21 21:07:03;;;;;;;10.20;9.10;;;8.40;46.30;;;;;;10381296;28;1118713;-71
2021/11/21 21:12:10;;;;;;;9.53;8.57;;;8.50;46.20;;;;;;10425213;28;20232;-72
2021/11/21 21:17:13;;;;;;;10.30;9.30;;;8.50;46.10;;;;;;10421653;28;20327;-72
2021/11/21 21:22:16;;;;;;;9.90;8.97;;;8.50;46.00;;;;;;10423534;28;20279;-72
2021/11/21 21:27:22;;;;;;;8.63;7.77;;;8.50;45.90;;;;;;10421161;28;20241;-71
2021/11/21 21:32:26;;;;;;;9.53;8.63;;;8.50;46.10;;;;;;10423305;28;20256;-72
2021/11/21 21:37:30;;;;;;;9.77;8.83;;;8.50;46.20;;;;;;10405918;28;20233;-72
2021/11/21 21:42:50;;;;;;;10.57;9.47;;;8.60;46.10;;;;;;10404233;28;20805;-72
2021/11/21 21:47:55;;;;;;;10.67;9.57;;;8.60;45.80;;;;;;10412651;28;20229;-72
2021/11/21 21:52:59;;;;;;;10.10;9.10;;;8.60;45.70;;;;;;10406059;28;20666;-72
2021/11/21 21:58:03;;;;;;;10.83;9.77;;;8.60;45.70;;;;;;10410241;28;20725;-72
2021/11/21 22:03:07;;;;;;;9.80;8.77;;;8.60;45.70;;;;;;10419249;28;20228;-72
2021/11/21 22:08:11;;;;;;;10.63;9.53;;;8.60;45.70;;;;;;10407335;28;20255;-72
2021/11/21 22:13:19;;;;;;;11.33;10.23;;;8.60;45.80;;;;;;10416645;28;20714;-72
2021/11/21 22:18:22;;;;;;;10.67;9.67;;;8.60;45.90;;;;;;10416197;28;20236;-72
2021/11/21 22:23:25;;;;;;;8.93;8.03;;;8.60;45.80;;;;;;10418586;28;20232;-72
2021/11/21 22:28:30;;;;;;;10.03;8.87;;;8.60;45.90;;;;;;10413162;28;20233;-72
2021/11/21 22:33:33;;;;;;;10.33;9.13;;;8.60;46.00;;;;;;10416054;28;20815;-72
2021/11/21 22:38:37;;;;;;;10.03;9.03;;;8.60;46.00;;;;;;10419044;28;20228;-72
2021/11/21 22:43:42;;;;;;;11.90;10.80;;;8.60;46.10;;;;;;10413950;28;20241;-72
2021/11/21 22:48:45;;;;;;;11.00;9.90;;;8.70;46.10;;;;;;10419728;28;20232;-72
2021/11/21 22:53:49;;;;;;;9.93;8.93;;;8.60;46.00;;;;;;10416188;28;20348;-73
2021/11/21 22:58:53;;;;;;;11.40;9.40;;;8.60;46.20;;;;;;10418689;28;20232;-73
2021/11/21 23:03:57;;;;;;;11.33;9.77;;;8.70;46.30;;;;;;10412102;28;20229;-73
2021/11/21 23:09:00;;;;;;;10.17;9.23;;;8.70;46.20;;;;;;10420558;28;20237;-73
2021/11/21 23:14:04;;;;;;;10.93;9.70;;;8.70;45.80;;;;;;10421507;28;20852;-73
2021/11/21 23:19:08;;;;;;;10.57;9.57;;;8.70;45.80;;;;;;10419595;28;20231;-73
2021/11/21 23:24:11;;;;;;;11.17;9.97;;;8.60;45.70;;;;;;10416252;28;20229;-73
2021/11/21 23:29:16;;;;;;;10.90;9.77;;;8.60;45.70;;;;;;10423096;28;20234;-73
2021/11/21 23:34:19;;;;;;;11.00;9.90;;;8.50;45.60;;;;;;10417915;28;20611;-73
2021/11/21 23:39:22;;;;;;;10.13;9.17;;;8.40;45.50;;;;;;10422522;28;20673;-72
2021/11/21 23:44:27;;;;;;;10.60;9.43;;;8.30;45.80;;;;;;10422201;28;20237;-72
2021/11/21 23:49:30;;;;;;;10.90;9.80;;;8.20;46.00;;;;;;10421811;28;20225;-72
2021/11/21 23:54:33;;;;;;;10.03;9.13;;;8.20;46.00;;;;;;10421678;28;20327;-72
2021/11/21 23:59:38;;;;;;;10.63;9.10;;;8.10;46.10;;;;;;10423621;28;20236;-72
